Time;durP1;ratioP1;P1;durP2;ratioP2;P2;SDS_P1;SDS_P2;PMS_P1;PMS_P2;Temp;Humidity;BMP_temperature;BMP_pressure;BME280_temperature;BME280_humidity;BME280_pressure;Samples;Min_cycle;Max_cycle;Signal;HPM_P1;HPM_P2
2023/06/18 00:01:03;;;;;;;33.45;25.85;;;;;;;;;;5029456;28;20028;-77
2023/06/18 00:03:29;;;;;;;31.50;25.98;;;;;;;;;;5027907;28;20107;-77
2023/06/18 00:05:55;;;;;;;36.90;26.75;;;;;;;;;;5029996;28;20124;-78
2023/06/18 00:08:21;;;;;;;34.65;27.80;;;;;;;;;;5028904;28;20041;-78
2023/06/18 00:10:47;;;;;;;32.58;25.70;;;;;;;;;;5027955;28;20177;-77
2023/06/18 00:13:13;;;;;;;34.40;25.98;;;;;;;;;;5028758;28;20049;-78
2023/06/18 00:15:39;;;;;;;40.92;29.40;;;;;;;;;;5027019;28;20069;-77
2023/06/18 00:18:05;;;;;;;34.08;26.45;;;;;;;;;;5031065;28;20366;-77
2023/06/18 00:20:32;;;;;;;36.30;26.90;;;;;;;;;;5028239;28;20382;-77
2023/06/18 00:22:59;;;;;;;40.10;28.65;;;;;;;;;;5028667;28;20118;-77
2023/06/18 00:25:25;;;;;;;40.45;29.50;;;;;;;;;;5023172;28;20048;-77
2023/06/18 00:27:51;;;;;;;38.10;28.33;;;;;;;;;;5030493;28;20046;-76
2023/06/18 00:30:17;;;;;;;41.85;29.88;;;;;;;;;;5028566;28;20095;-76
2023/06/18 00:32:48;;;;;;;34.75;28.05;;;;;;;;;;5029712;28;20442;-76
2023/06/18 00:35:15;;;;;;;37.63;28.67;;;;;;;;;;5027537;28;20048;-77
2023/06/18 00:37:44;;;;;;;39.25;29.95;;;;;;;;;;5025906;28;20041;-77
2023/06/18 00:40:12;;;;;;;35.83;28.77;;;;;;;;;;5026550;28;20021;-77
2023/06/18 00:42:39;;;;;;;38.72;28.17;;;;;;;;;;5026552;28;20045;-76
2023/06/18 00:45:08;;;;;;;42.20;29.92;;;;;;;;;;5030346;28;20030;-76
2023/06/18 00:47:35;;;;;;;41.17;30.58;;;;;;;;;;5027807;28;20106;-77
2023/06/18 00:50:03;;;;;;;39.53;28.98;;;;;;;;;;5030085;28;20041;-77
2023/06/18 00:52:29;;;;;;;40.80;30.45;;;;;;;;;;5024949;28;20025;-76
2023/06/18 00:54:56;;;;;;;37.38;29.35;;;;;;;;;;5030190;28;20151;-77
2023/06/18 00:57:24;;;;;;;41.92;29.77;;;;;;;;;;5023297;28;20140;-77
2023/06/18 00:59:51;;;;;;;36.85;28.70;;;;;;;;;;5028887;28;20029;-76
2023/06/18 01:02:23;;;;;;;38.60;30.55;;;;;;;;;;5019803;28;20092;-77
2023/06/18 01:04:52;;;;;;;42.13;29.85;;;;;;;;;;5030555;28;20415;-77
2023/06/18 01:07:18;;;;;;;42.00;30.38;;;;;;;;;;5027931;28;20037;-77
2023/06/18 01:09:45;;;;;;;39.08;29.50;;;;;;;;;;5030275;28;20041;-77
2023/06/18 01:12:11;;;;;;;42.47;31.13;;;;;;;;;;5025904;28;20410;-76
2023/06/18 01:14:37;;;;;;;38.22;29.20;;;;;;;;;;5024737;28;20049;-76
2023/06/18 01:17:04;;;;;;;38.03;29.73;;;;;;;;;;5025810;28;20021;-76
2023/06/18 01:19:47;;;;;;;38.40;31.08;;;;;;;;;;5028745;28;20025;-76
2023/06/18 01:22:21;;;;;;;41.05;30.42;;;;;;;;;;5027614;28;20049;-76
2023/06/18 01:24:51;;;;;;;39.63;30.02;;;;;;;;;;5029345;28;20025;-77
2023/06/18 01:27:21;;;;;;;38.95;30.15;;;;;;;;;;5028135;28;20094;-76
2023/06/18 01:29:57;;;;;;;43.78;29.65;;;;;;;;;;5027304;28;20061;-76
2023/06/18 01:32:23;;;;;;;41.30;30.77;;;;;;;;;;5019984;28;20029;-76
2023/06/18 01:34:53;;;;;;;39.00;30.40;;;;;;;;;;5027792;28;20048;-76
2023/06/18 01:37:25;;;;;;;38.85;29.45;;;;;;;;;;5028367;28;20435;-76
2023/06/18 01:39:51;;;;;;;42.63;32.20;;;;;;;;;;5024942;28;20116;-76
2023/06/18 01:42:20;;;;;;;39.92;29.98;;;;;;;;;;5026182;28;20120;-76
2023/06/18 01:45:09;;;;;;;41.22;29.50;;;;;;;;;;5026687;28;21756;-76
2023/06/18 01:47:35;;;;;;;40.05;30.15;;;;;;;;;;5027868;28;20466;-76
2023/06/18 01:50:02;;;;;;;39.50;29.17;;;;;;;;;;5028006;28;20068;-76
2023/06/18 01:52:30;;;;;;;38.70;30.17;;;;;;;;;;5028375;28;20123;-76
2023/06/18 01:54:59;;;;;;;42.95;30.67;;;;;;;;;;5022829;28;20060;-76
2023/06/18 01:57:25;;;;;;;41.70;31.85;;;;;;;;;;5020000;28;20041;-77
2023/06/18 01:59:51;;;;;;;39.85;31.27;;;;;;;;;;5024776;28;20056;-76
2023/06/18 02:02:17;;;;;;;43.38;30.98;;;;;;;;;;5029913;28;20037;-76
2023/06/18 02:04:43;;;;;;;39.13;29.60;;;;;;;;;;5025352;28;20395;-76
2023/06/18 02:07:13;;;;;;;41.53;30.33;;;;;;;;;;5027881;28;20049;-78
2023/06/18 02:09:39;;;;;;;43.40;30.60;;;;;;;;;;5027482;28;20033;-77
2023/06/18 02:12:05;;;;;;;36.63;30.10;;;;;;;;;;5029590;28;20345;-77
2023/06/18 02:14:32;;;;;;;40.75;30.33;;;;;;;;;;5028945;28;20046;-76
2023/06/18 02:16:59;;;;;;;42.10;29.85;;;;;;;;;;5031829;28;20395;-76
2023/06/18 02:19:25;;;;;;;39.72;31.05;;;;;;;;;;5030710;28;20063;-76
2023/06/18 02:21:51;;;;;;;41.00;30.92;;;;;;;;;;5031212;28;20026;-76
2023/06/18 02:24:17;;;;;;;43.25;30.45;;;;;;;;;;5031372;28;20061;-76
2023/06/18 02:26:43;;;;;;;40.95;30.92;;;;;;;;;;5031309;28;20124;-76
2023/06/18 02:29:09;;;;;;;36.85;29.23;;;;;;;;;;5032598;28;20041;-76
2023/06/18 02:31:35;;;;;;;38.63;29.13;;;;;;;;;;5031260;28;20045;-75
2023/06/18 02:34:01;;;;;;;37.15;29.05;;;;;;;;;;5033537;28;20419;-75
2023/06/18 02:36:28;;;;;;;37.83;30.17;;;;;;;;;;5026224;28;21454;-76
2023/06/18 02:38:55;;;;;;;39.53;29.90;;;;;;;;;;5030135;28;20072;-76
2023/06/18 02:41:26;;;;;;;38.40;29.80;;;;;;;;;;5026143;28;20040;-76
2023/06/18 02:43:53;;;;;;;43.72;30.10;;;;;;;;;;5032901;28;20483;-76
2023/06/18 02:46:19;;;;;;;37.75;30.63;;;;;;;;;;5030590;28;20025;-76
2023/06/18 02:48:45;;;;;;;37.42;28.33;;;;;;;;;;5030151;28;20394;-76
2023/06/18 02:51:11;;;;;;;36.08;28.48;;;;;;;;;;5030021;28;20171;-76
2023/06/18 02:53:38;;;;;;;32.80;26.42;;;;;;;;;;5029606;28;20388;-76
2023/06/18 02:56:04;;;;;;;39.65;29.40;;;;;;;;;;5029674;28;20040;-76
2023/06/18 02:58:30;;;;;;;32.83;26.20;;;;;;;;;;5031461;28;20041;-77
2023/06/18 03:00:56;;;;;;;36.22;28.60;;;;;;;;;;5030881;28;20040;-76
2023/06/18 03:03:23;;;;;;;39.08;28.38;;;;;;;;;;5032519;28;20075;-76
2023/06/18 03:05:49;;;;;;;39.92;28.48;;;;;;;;;;5028650;28;20045;-77
2023/06/18 03:08:15;;;;;;;36.58;27.65;;;;;;;;;;5031007;28;20041;-76
2023/06/18 03:10:42;;;;;;;33.28;25.85;;;;;;;;;;5026958;28;20113;-75
2023/06/18 03:13:08;;;;;;;33.90;26.45;;;;;;;;;;5026568;28;20029;-75
2023/06/18 03:15:34;;;;;;;35.38;26.58;;;;;;;;;;5026343;28;20034;-76
2023/06/18 03:18:00;;;;;;;38.63;27.48;;;;;;;;;;5024315;28;20045;-75
2023/06/18 03:20:30;;;;;;;33.58;26.52;;;;;;;;;;5031211;28;20088;-74
2023/06/18 03:22:56;;;;;;;38.35;27.95;;;;;;;;;;5025247;28;20068;-76
2023/06/18 03:25:22;;;;;;;33.42;26.42;;;;;;;;;;5022181;28;20038;-77
2023/06/18 03:27:50;;;;;;;29.85;23.75;;;;;;;;;;5025319;28;20052;-73
2023/06/18 03:30:16;;;;;;;59.60;40.88;;;;;;;;;;5026637;28;20021;-76
2023/06/18 03:32:42;;;;;;;44.53;34.78;;;;;;;;;;5030265;28;20041;-73
2023/06/18 03:35:09;;;;;;;32.28;24.77;;;;;;;;;;5029806;28;20155;-72
2023/06/18 03:37:38;;;;;;;29.58;23.38;;;;;;;;;;5027639;28;20055;-73
2023/06/18 03:40:05;;;;;;;30.88;25.52;;;;;;;;;;5026283;28;20025;-80
2023/06/18 03:42:31;;;;;;;31.50;25.83;;;;;;;;;;5027528;28;20038;-80
2023/06/18 03:44:57;;;;;;;31.02;23.63;;;;;;;;;;5026849;28;20469;-82
2023/06/18 03:47:23;;;;;;;30.63;23.42;;;;;;;;;;5023825;28;20042;-82
2023/06/18 03:49:49;;;;;;;34.22;25.10;;;;;;;;;;5028718;28;20034;-82
2023/06/18 03:52:15;;;;;;;30.30;23.48;;;;;;;;;;5028273;28;20388;-84
2023/06/18 03:54:41;;;;;;;26.42;22.13;;;;;;;;;;5019954;28;20440;-81
2023/06/18 03:57:08;;;;;;;26.50;20.23;;;;;;;;;;5022131;28;20493;-80
2023/06/18 03:59:34;;;;;;;28.17;22.65;;;;;;;;;;5027448;28;20179;-77
2023/06/18 04:02:00;;;;;;;31.75;23.88;;;;;;;;;;5027718;28;20030;-76
2023/06/18 04:04:26;;;;;;;31.08;25.58;;;;;;;;;;5028184;28;20037;-76
2023/06/18 04:06:54;;;;;;;25.95;20.92;;;;;;;;;;5011901;28;20041;-75
2023/06/18 04:09:20;;;;;;;24.20;19.98;;;;;;;;;;5021919;28;20033;-74
2023/06/18 04:11:46;;;;;;;23.80;19.52;;;;;;;;;;5030247;28;20048;-75
2023/06/18 04:14:12;;;;;;;23.05;19.23;;;;;;;;;;5024951;28;20037;-76
2023/06/18 04:16:38;;;;;;;24.17;19.42;;;;;;;;;;5018744;28;20033;-78
2023/06/18 04:19:05;;;;;;;71.97;54.97;;;;;;;;;;5020209;28;20025;-77
2023/06/18 04:21:31;;;;;;;28.63;21.90;;;;;;;;;;5018785;28;20034;-79
2023/06/18 04:23:57;;;;;;;30.10;23.25;;;;;;;;;;5022863;28;20053;-77
2023/06/18 04:26:23;;;;;;;23.55;20.40;;;;;;;;;;5018087;28;20467;-75
2023/06/18 04:28:50;;;;;;;23.65;19.63;;;;;;;;;;5019176;28;20050;-74
2023/06/18 04:31:16;;;;;;;26.38;20.05;;;;;;;;;;5019384;28;20049;-74
2023/06/18 04:33:42;;;;;;;23.15;19.70;;;;;;;;;;5019435;28;20025;-74
2023/06/18 04:36:09;;;;;;;23.77;19.45;;;;;;;;;;5024625;28;20036;-74
2023/06/18 04:38:37;;;;;;;23.27;19.50;;;;;;;;;;5017299;28;20029;-74
2023/06/18 04:41:03;;;;;;;25.48;20.98;;;;;;;;;;5020075;28;20033;-73
2023/06/18 04:43:29;;;;;;;25.88;21.58;;;;;;;;;;5020119;28;20672;-77
2023/06/18 04:45:55;;;;;;;25.77;21.70;;;;;;;;;;5017851;28;20116;-77
2023/06/18 04:48:22;;;;;;;26.67;22.80;;;;;;;;;;5016147;28;20038;-78
2023/06/18 04:50:49;;;;;;;26.90;21.77;;;;;;;;;;5021183;28;20040;-78
2023/06/18 04:53:16;;;;;;;27.23;23.23;;;;;;;;;;5017269;28;20101;-76
2023/06/18 04:55:43;;;;;;;55.30;37.28;;;;;;;;;;5021543;28;20120;-77
2023/06/18 04:58:10;;;;;;;33.53;27.92;;;;;;;;;;5019732;28;20025;-75
2023/06/18 05:00:36;;;;;;;33.15;24.95;;;;;;;;;;5017614;28;20453;-83
2023/06/18 05:03:04;;;;;;;30.52;24.50;;;;;;;;;;5023495;28;20077;-81
2023/06/18 05:05:30;;;;;;;28.38;23.67;;;;;;;;;;5021506;28;20093;-80
2023/06/18 05:07:56;;;;;;;26.27;22.35;;;;;;;;;;5021852;28;20041;-80
2023/06/18 05:10:22;;;;;;;30.80;24.73;;;;;;;;;;5020489;28;20038;-81
2023/06/18 05:12:49;;;;;;;29.10;23.95;;;;;;;;;;5021650;28;20026;-80
2023/06/18 05:15:16;;;;;;;37.20;26.65;;;;;;;;;;5028528;28;20022;-76
2023/06/18 05:17:42;;;;;;;28.98;24.20;;;;;;;;;;5028321;28;20114;-81
2023/06/18 05:20:08;;;;;;;31.90;24.63;;;;;;;;;;5028936;28;20073;-80
2023/06/18 05:22:34;;;;;;;31.60;25.23;;;;;;;;;;5045332;28;20072;-81
2023/06/18 05:25:01;;;;;;;31.77;25.58;;;;;;;;;;5029229;28;20096;-81
2023/06/18 05:27:28;;;;;;;32.95;26.38;;;;;;;;;;5029992;28;20038;-77
2023/06/18 05:29:54;;;;;;;33.03;26.42;;;;;;;;;;5029015;28;20091;-79
2023/06/18 05:32:20;;;;;;;34.35;24.67;;;;;;;;;;5028869;28;20033;-81
2023/06/18 05:34:46;;;;;;;34.30;26.10;;;;;;;;;;5050415;28;20057;-80
2023/06/18 05:37:13;;;;;;;28.88;23.83;;;;;;;;;;5046428;28;20582;-82
2023/06/18 05:39:39;;;;;;;34.45;25.08;;;;;;;;;;5028708;28;20030;-80
2023/06/18 05:42:06;;;;;;;32.90;25.42;;;;;;;;;;5024336;28;20044;-82
2023/06/18 05:44:32;;;;;;;33.38;24.08;;;;;;;;;;5022362;28;20061;-79
2023/06/18 05:46:58;;;;;;;29.83;23.92;;;;;;;;;;5030405;28;20179;-81
2023/06/18 05:49:24;;;;;;;33.15;24.05;;;;;;;;;;5031586;28;20073;-81
2023/06/18 05:51:50;;;;;;;32.13;24.85;;;;;;;;;;5034421;28;20463;-80
2023/06/18 05:54:16;;;;;;;32.40;24.73;;;;;;;;;;5033271;28;20155;-82
2023/06/18 05:56:43;;;;;;;32.35;25.20;;;;;;;;;;5032031;28;20045;-79
2023/06/18 05:59:09;;;;;;;33.33;24.48;;;;;;;;;;5032691;28;20109;-82
2023/06/18 06:01:36;;;;;;;34.50;25.42;;;;;;;;;;5033860;28;20030;-81
2023/06/18 06:04:02;;;;;;;30.67;23.48;;;;;;;;;;5032530;28;20036;-82
2023/06/18 06:06:29;;;;;;;35.17;24.23;;;;;;;;;;5030933;28;20475;-80
2023/06/18 06:08:55;;;;;;;29.00;22.83;;;;;;;;;;5033880;28;20041;-82
2023/06/18 06:11:21;;;;;;;33.13;23.65;;;;;;;;;;5035481;28;20433;-80
2023/06/18 06:13:47;;;;;;;30.92;22.83;;;;;;;;;;5034826;28;20044;-79
2023/06/18 06:16:13;;;;;;;32.08;23.58;;;;;;;;;;5035022;28;20036;-77
2023/06/18 06:18:39;;;;;;;30.23;23.88;;;;;;;;;;5028220;28;20056;-80
2023/06/18 06:21:05;;;;;;;29.48;21.80;;;;;;;;;;5031872;28;20501;-82
2023/06/18 06:23:31;;;;;;;32.90;23.27;;;;;;;;;;5033013;28;20064;-80
2023/06/18 06:25:57;;;;;;;30.88;23.25;;;;;;;;;;5033463;28;20104;-80
2023/06/18 06:28:23;;;;;;;32.42;23.08;;;;;;;;;;5032528;28;20108;-80
2023/06/18 06:30:51;;;;;;;30.65;22.83;;;;;;;;;;5037459;28;20056;-79
2023/06/18 06:33:16;;;;;;;26.33;21.23;;;;;;;;;;5030384;28;20045;-80
2023/06/18 06:35:44;;;;;;;29.75;21.45;;;;;;;;;;5033321;28;20049;-80
2023/06/18 06:38:10;;;;;;;28.33;20.25;;;;;;;;;;5031432;28;20340;-80
2023/06/18 06:40:36;;;;;;;24.23;19.77;;;;;;;;;;5031080;28;20033;-80
2023/06/18 06:43:03;;;;;;;22.15;18.73;;;;;;;;;;5032979;28;20100;-82
2023/06/18 06:45:29;;;;;;;26.58;20.33;;;;;;;;;;5025926;28;20057;-81
2023/06/18 06:47:55;;;;;;;23.30;18.88;;;;;;;;;;5031202;28;20075;-80
2023/06/18 06:50:21;;;;;;;27.27;20.45;;;;;;;;;;5032582;28;20029;-80
2023/06/18 06:52:47;;;;;;;21.02;17.13;;;;;;;;;;5032304;28;20124;-81
2023/06/18 06:55:13;;;;;;;23.83;18.25;;;;;;;;;;5033099;28;20108;-82
2023/06/18 06:57:39;;;;;;;26.02;18.27;;;;;;;;;;5029262;28;20037;-78
2023/06/18 07:00:06;;;;;;;23.92;19.52;;;;;;;;;;5029927;28;20044;-82
2023/06/18 07:02:33;;;;;;;25.13;17.92;;;;;;;;;;5025839;28;20064;-81
2023/06/18 07:04:59;;;;;;;29.75;19.95;;;;;;;;;;5032953;28;20024;-80
2023/06/18 07:07:25;;;;;;;25.17;19.05;;;;;;;;;;5033011;28;20127;-83
2023/06/18 07:09:52;;;;;;;24.85;20.58;;;;;;;;;;5031530;28;20041;-81
2023/06/18 07:12:18;;;;;;;26.17;19.35;;;;;;;;;;5027795;28;20036;-83
2023/06/18 07:14:44;;;;;;;22.23;19.23;;;;;;;;;;5031811;28;20285;-82
2023/06/18 07:17:10;;;;;;;24.88;18.77;;;;;;;;;;5032468;28;20025;-82
2023/06/18 07:19:36;;;;;;;23.27;18.95;;;;;;;;;;5032289;28;20116;-80
2023/06/18 07:22:02;;;;;;;22.67;18.08;;;;;;;;;;5029465;28;20055;-83
2023/06/18 07:24:29;;;;;;;24.95;19.48;;;;;;;;;;5031891;28;20072;-81
2023/06/18 07:26:55;;;;;;;21.25;17.50;;;;;;;;;;5032032;28;20087;-82
2023/06/18 07:29:23;;;;;;;26.45;18.60;;;;;;;;;;5023962;28;20038;-83
2023/06/18 07:31:49;;;;;;;24.45;18.98;;;;;;;;;;5026374;28;20064;-81
2023/06/18 07:34:16;;;;;;;20.17;16.20;;;;;;;;;;5027944;28;20054;-83
2023/06/18 07:36:42;;;;;;;19.33;16.25;;;;;;;;;;5021521;28;20029;-82
2023/06/18 07:39:08;;;;;;;20.33;15.68;;;;;;;;;;5031257;28;20042;-82
2023/06/18 07:41:35;;;;;;;22.38;16.38;;;;;;;;;;5030647;28;20036;-80
2023/06/18 07:44:01;;;;;;;26.17;17.30;;;;;;;;;;5029716;28;20151;-81
2023/06/18 07:46:27;;;;;;;22.55;15.52;;;;;;;;;;5027687;28;20075;-82
2023/06/18 07:48:53;;;;;;;17.83;13.65;;;;;;;;;;5031630;28;20041;-82
2023/06/18 07:51:19;;;;;;;16.70;14.82;;;;;;;;;;5022928;28;20083;-82
2023/06/18 07:53:46;;;;;;;19.52;14.07;;;;;;;;;;5027576;28;20120;-82
2023/06/18 07:56:12;;;;;;;18.83;13.45;;;;;;;;;;5030303;28;20044;-84
2023/06/18 07:58:38;;;;;;;18.67;13.35;;;;;;;;;;5029742;28;20057;-84
2023/06/18 08:01:05;;;;;;;19.70;14.73;;;;;;;;;;5029638;28;20029;-84
2023/06/18 08:03:31;;;;;;;18.80;12.25;;;;;;;;;;5026998;28;20026;-82
2023/06/18 08:05:58;;;;;;;18.33;12.63;;;;;;;;;;5031713;28;20029;-79
2023/06/18 08:08:25;;;;;;;18.02;12.10;;;;;;;;;;5026095;28;20613;-78
2023/06/18 08:10:51;;;;;;;19.92;12.75;;;;;;;;;;5012853;28;20033;-80
2023/06/18 08:13:18;;;;;;;17.65;13.38;;;;;;;;;;5029235;28;20033;-78
2023/06/18 08:15:45;;;;;;;17.73;12.98;;;;;;;;;;5024155;28;20040;-81
2023/06/18 08:18:11;;;;;;;23.13;18.65;;;;;;;;;;5027838;28;20123;-73
2023/06/18 08:20:37;;;;;;;20.73;14.85;;;;;;;;;;5029565;28;20113;-72
2023/06/18 08:23:03;;;;;;;19.40;14.85;;;;;;;;;;5030567;28;20514;-73
2023/06/18 08:25:29;;;;;;;14.52;12.18;;;;;;;;;;5021950;28;20025;-75
2023/06/18 08:27:56;;;;;;;15.95;12.02;;;;;;;;;;5031493;28;20037;-72
2023/06/18 08:30:22;;;;;;;15.13;11.82;;;;;;;;;;5025253;28;20040;-70
2023/06/18 08:32:48;;;;;;;16.38;10.93;;;;;;;;;;5030901;28;20045;-71
2023/06/18 08:35:14;;;;;;;16.85;9.70;;;;;;;;;;5024417;28;20104;-70
2023/06/18 08:37:42;;;;;;;31.13;22.92;;;;;;;;;;5029692;28;20667;-71
2023/06/18 08:40:11;;;;;;;106.13;78.57;;;;;;;;;;5026612;28;20037;-72
2023/06/18 08:42:37;;;;;;;18.98;14.40;;;;;;;;;;5029802;28;20479;-70
2023/06/18 08:45:05;;;;;;;15.48;9.82;;;;;;;;;;5009167;28;20121;-72
2023/06/18 08:47:32;;;;;;;11.48;8.98;;;;;;;;;;5021570;28;20368;-72
2023/06/18 08:49:59;;;;;;;15.13;8.93;;;;;;;;;;5025933;28;20037;-72
2023/06/18 08:52:27;;;;;;;10.45;8.45;;;;;;;;;;5028886;28;20029;-72
2023/06/18 08:54:56;;;;;;;12.23;8.43;;;;;;;;;;5033102;28;20071;-72
2023/06/18 08:57:44;;;;;;;9.27;7.72;;;;;;;;;;5026652;28;20513;-72
2023/06/18 09:00:10;;;;;;;10.95;7.30;;;;;;;;;;5025079;28;20032;-72
2023/06/18 09:02:36;;;;;;;12.05;6.28;;;;;;;;;;5040747;28;20044;-72
2023/06/18 09:05:03;;;;;;;8.20;6.40;;;;;;;;;;5029888;28;20021;-73
2023/06/18 09:07:30;;;;;;;11.30;6.45;;;;;;;;;;5025473;28;20112;-73
2023/06/18 09:09:57;;;;;;;8.35;6.15;;;;;;;;;;5019106;28;20037;-71
2023/06/18 09:12:23;;;;;;;8.57;6.25;;;;;;;;;;5026626;28;20487;-72
2023/06/18 09:14:49;;;;;;;7.80;6.47;;;;;;;;;;5026461;28;20040;-73
2023/06/18 09:17:19;;;;;;;10.88;6.97;;;;;;;;;;5029796;28;20036;-73
2023/06/18 09:19:46;;;;;;;20.13;15.52;;;;;;;;;;5029046;28;20040;-72
2023/06/18 09:22:16;;;;;;;9.30;7.20;;;;;;;;;;5029134;28;20132;-74
2023/06/18 09:24:43;;;;;;;10.95;6.70;;;;;;;;;;5028451;28;20109;-75
2023/06/18 09:27:09;;;;;;;8.18;5.82;;;;;;;;;;5015930;28;20398;-75
2023/06/18 09:29:36;;;;;;;9.95;6.00;;;;;;;;;;5024399;28;20040;-75
2023/06/18 09:32:08;;;;;;;14.98;6.68;;;;;;;;;;5025721;28;20041;-75
2023/06/18 09:34:36;;;;;;;7.65;6.25;;;;;;;;;;5026697;28;20033;-76
2023/06/18 09:37:03;;;;;;;10.02;6.47;;;;;;;;;;5030093;28;20041;-76
2023/06/18 09:39:30;;;;;;;13.27;5.68;;;;;;;;;;5028780;28;20036;-75
2023/06/18 09:41:57;;;;;;;8.65;6.07;;;;;;;;;;5025305;28;20032;-74
2023/06/18 09:44:27;;;;;;;8.50;7.03;;;;;;;;;;5020679;28;20120;-74
2023/06/18 09:46:57;;;;;;;15.30;9.00;;;29.90;99.90;;;;;;5023927;28;20116;-73
2023/06/18 09:49:26;;;;;;;8.07;6.35;;;;;;;;;;5020317;28;22179;-73
2023/06/18 09:51:52;;;;;;;13.30;6.43;;;;;;;;;;5023793;28;20048;-72
2023/06/18 09:54:20;;;;;;;6.20;4.97;;;;;;;;;;5018858;28;20065;-72
2023/06/18 09:56:59;;;;;;;8.82;5.50;;;29.80;99.90;;;;;;5022831;28;20109;-72
2023/06/18 09:59:26;;;;;;;5.93;5.20;;;29.80;99.90;;;;;;5020033;28;20104;-72
2023/06/18 10:01:52;;;;;;;8.50;5.60;;;;;;;;;;5019796;28;20041;-72
2023/06/18 10:04:18;;;;;;;7.38;5.60;;;29.90;99.90;;;;;;5018197;28;20398;-72
2023/06/18 10:06:53;;;;;;;6.03;5.43;;;29.80;99.90;;;;;;5023824;28;20034;-72
2023/06/18 10:09:20;;;;;;;7.82;5.80;;;30.00;99.90;;;;;;5019811;28;20410;-72
2023/06/18 10:11:51;;;;;;;9.60;5.63;;;30.10;99.90;;;;;;5022963;28;20052;-72
2023/06/18 10:14:21;;;;;;;6.80;5.13;;;;;;;;;;5020682;28;20021;-72
2023/06/18 10:16:50;;;;;;;8.63;5.47;;;30.20;99.90;;;;;;5023756;28;20108;-72
2023/06/18 10:19:31;;;;;;;8.05;5.40;;;30.10;99.90;;;;;;5020721;28;20041;-72
2023/06/18 10:21:59;;;;;;;6.00;5.38;;;;;;;;;;5036603;28;20038;-72
2023/06/18 10:24:32;;;;;;;9.05;5.05;;;;;;;;;;5021706;28;20032;-71
2023/06/18 10:26:58;;;;;;;6.60;5.50;;;;;;;;;;5023719;28;20061;-72
2023/06/18 10:29:24;;;;;;;5.90;5.00;;;;;;;;;;5022226;28;20044;-72
2023/06/18 10:31:54;;;;;;;10.15;8.15;;;;;;;;;;5018640;28;20129;-72
2023/06/18 10:34:20;;;;;;;49.38;38.15;;;;;;;;;;5024881;28;20116;-73
2023/06/18 10:36:46;;;;;;;11.00;6.53;;;;;;;;;;5011966;28;20029;-71
2023/06/18 10:39:13;;;;;;;8.32;4.88;;;;;;;;;;5025537;28;20343;-72
2023/06/18 10:41:39;;;;;;;7.63;5.00;;;;;;;;;;5026960;28;20052;-72
2023/06/18 10:44:06;;;;;;;9.82;4.75;;;;;;;;;;5024556;28;20043;-72
2023/06/18 10:46:34;;;;;;;6.65;5.05;;;;;;;;;;5024320;28;20041;-71
2023/06/18 10:49:26;;;;;;;10.10;5.25;;;;;;;;;;5023847;28;20179;-71
2023/06/18 10:51:58;;;;;;;7.00;4.78;;;;;;;;;;5020179;28;20487;-71
2023/06/18 10:54:31;;;;;;;7.40;5.00;;;;;;;;;;5026881;28;20030;-70
2023/06/18 10:56:58;;;;;;;10.40;4.82;;;;;;;;;;5028195;28;20041;-71
2023/06/18 10:59:37;;;;;;;9.05;4.80;;;;;;;;;;5026339;28;20479;-72
2023/06/18 11:02:03;;;;;;;6.00;4.30;;;;;;;;;;5025134;28;20076;-72
2023/06/18 11:04:32;;;;;;;7.97;4.63;;;31.30;99.90;;;;;;5016777;28;20068;-72
2023/06/18 11:07:23;;;;;;;39.30;31.80;;;31.40;99.90;;;;;;5007423;28;20471;-73
2023/06/18 11:09:53;;;;;;;26.58;18.95;;;31.40;99.90;;;;;;5024529;28;20037;-72
2023/06/18 11:12:36;;;;;;;7.53;6.25;;;31.40;99.90;;;;;;5023642;28;20459;-78
2023/06/18 11:15:17;;;;;;;8.48;4.30;;;;;;;;;;5022626;28;20116;-81
2023/06/18 11:17:51;;;;;;;6.97;4.60;;;31.40;99.90;;;;;;5036251;28;20463;-79
2023/06/18 11:20:22;;;;;;;7.32;4.05;;;31.70;99.90;;;;;;5021561;28;20478;-80
2023/06/18 11:22:53;;;;;;;4.88;3.83;;;31.50;99.90;;;;;;5023829;28;20055;-76
2023/06/18 11:25:19;;;;;;;6.93;4.03;;;;;;;;;;5025704;28;20184;-77
2023/06/18 11:27:49;;;;;;;6.05;4.18;;;;;;;;;;5026571;28;20037;-77
2023/06/18 11:30:18;;;;;;;8.73;3.95;;;;;;;;;;5023930;28;20400;-77
2023/06/18 11:32:44;;;;;;;10.40;3.95;;;;;;;;;;5022649;28;20375;-76
2023/06/18 11:35:12;;;;;;;6.45;4.30;;;;;;;;;;5025792;28;20037;-73
2023/06/18 11:37:39;;;;;;;9.60;6.72;;;;;;;;;;5027388;28;20041;-73
2023/06/18 11:40:06;;;;;;;6.68;4.85;;;;;;;;;;5024121;28;20109;-74
2023/06/18 11:42:33;;;;;;;7.25;4.25;;;;;;;;;;5005766;28;20515;-72
2023/06/18 11:45:02;;;;;;;7.47;4.20;;;;;;;;;;5029279;28;20479;-72
2023/06/18 11:47:34;;;;;;;4.03;3.67;;;;;;;;;;5022749;28;20073;-72
2023/06/18 11:50:00;;;;;;;5.07;4.22;;;;;;;;;;5030569;28;20056;-72
2023/06/18 11:52:28;;;;;;;5.47;4.38;;;;;;;;;;5028878;28;20103;-72
2023/06/18 11:54:55;;;;;;;6.72;4.30;;;;;;;;;;5028516;28;20044;-72
2023/06/18 11:57:22;;;;;;;8.25;4.00;;;;;;;;;;5016072;28;20029;-72
2023/06/18 11:59:54;;;;;;;5.20;3.88;;;;;;;;;;5031349;28;20029;-72
2023/06/18 12:02:21;;;;;;;6.90;4.10;;;;;;;;;;5031897;28;20045;-72
2023/06/18 12:04:49;;;;;;;4.40;3.95;;;;;;;;;;5031736;28;20025;-72
2023/06/18 12:07:16;;;;;;;6.38;4.07;;;;;;;;;;5031246;28;20045;-73
2023/06/18 12:09:42;;;;;;;5.97;3.80;;;;;;;;;;5023836;28;21093;-72
2023/06/18 12:12:17;;;;;;;6.65;4.00;;;32.80;99.90;;;;;;5029629;28;20487;-72
2023/06/18 12:15:12;;;;;;;11.73;3.97;;;33.00;99.90;;;;;;5020261;28;20033;-72
2023/06/18 12:17:37;;;;;;;5.70;4.38;;;32.70;99.90;;;;;;5025288;28;20029;-72
2023/06/18 12:20:10;;;;;;;4.90;4.00;;;32.40;99.90;;;;;;5028917;28;20029;-73
2023/06/18 12:22:38;;;;;;;4.50;3.60;;;32.50;99.90;;;;;;5011239;28;20081;-72
2023/06/18 12:25:04;;;;;;;6.22;4.05;;;32.40;99.90;;;;;;5016166;28;20029;-73
2023/06/18 12:27:30;;;;;;;6.13;3.85;;;32.50;99.90;;;;;;5029177;28;20553;-73
2023/06/18 12:30:03;;;;;;;7.10;4.05;;;32.30;99.90;;;;;;5030078;28;20033;-72
2023/06/18 12:32:29;;;;;;;9.60;4.05;;;32.30;99.90;;;;;;5023300;28;20025;-73
2023/06/18 12:34:55;;;;;;;8.00;4.00;;;32.10;99.90;;;;;;5031199;28;20091;-72
2023/06/18 12:37:36;;;;;;;7.97;4.05;;;32.30;99.90;;;;;;5030178;28;20048;-73
2023/06/18 12:40:18;;;;;;;6.47;4.10;;;32.10;99.90;;;;;;5016912;28;20474;-74
2023/06/18 12:42:45;;;;;;;4.97;4.00;;;32.20;99.90;;;;;;5021132;28;20026;-74
2023/06/18 12:45:12;;;;;;;6.97;4.45;;;32.20;99.90;;;;;;5014987;28;20037;-75
2023/06/18 12:47:42;;;;;;;5.68;3.63;;;32.40;99.90;;;;;;5022971;28;20103;-75
2023/06/18 12:50:09;;;;;;;6.83;4.03;;;32.40;99.90;;;;;;5021034;28;20125;-75
2023/06/18 12:52:41;;;;;;;6.28;4.10;;;32.60;99.90;;;;;;5025973;28;20329;-74
2023/06/18 12:55:12;;;;;;;7.28;4.40;;;32.60;99.90;;;;;;5024073;28;20398;-73
2023/06/18 12:57:41;;;;;;;;;;;32.80;99.90;;;;;;5025728;28;20077;-72
2023/06/18 13:00:16;;;;;;;6.80;3.67;;;32.80;99.90;;;;;;5018366;28;19909;-73
2023/06/18 13:02:44;;;;;;;6.00;3.67;;;32.70;99.90;;;;;;5025099;28;20045;-75
2023/06/18 13:05:10;;;;;;;7.82;3.95;;;;;;;;;;5030065;28;20017;-76
2023/06/18 13:07:38;;;;;;;6.15;4.10;;;33.30;99.90;;;;;;5019681;28;20038;-76
2023/06/18 13:10:05;;;;;;;6.85;4.53;;;33.20;99.90;;;;;;5018979;28;20065;-77
2023/06/18 13:12:31;;;;;;;4.25;3.88;;;;;;;;;;5023061;28;20211;-76
2023/06/18 13:14:57;;;;;;;8.55;3.80;;;;;;;;;;5022703;28;20114;-76
2023/06/18 13:17:23;;;;;;;5.05;3.78;;;33.20;99.90;;;;;;5022351;28;20033;-76
2023/06/18 13:19:48;;;;;;;7.50;4.10;;;32.90;99.90;;;;;;5021895;28;20057;-76
2023/06/18 13:22:14;;;;;;;7.05;4.30;;;33.10;99.90;;;;;;5024021;28;20053;-78
2023/06/18 13:24:41;;;;;;;81.40;69.40;;;33.20;99.90;;;;;;5021805;28;20380;-76
2023/06/18 13:27:06;;;;;;;8.55;4.70;;;33.20;99.90;;;;;;5021020;28;20037;-76
2023/06/18 13:29:33;;;;;;;6.50;4.38;;;;;;;;;;5024337;28;20088;-76
2023/06/18 13:31:59;;;;;;;6.93;3.92;;;33.20;99.90;;;;;;5019553;28;20033;-75
2023/06/18 13:34:28;;;;;;;6.82;4.22;;;32.80;99.90;;;;;;5025942;28;20478;-77
2023/06/18 13:36:55;;;;;;;4.75;4.22;;;33.00;99.90;;;;;;5020106;28;20030;-77
2023/06/18 13:39:23;;;;;;;8.88;4.32;;;;;;;;;;5006078;28;20087;-79
2023/06/18 13:41:48;;;;;;;4.72;3.65;;;33.00;99.90;;;;;;5022259;28;20129;-75
2023/06/18 13:44:16;;;;;;;5.97;3.47;;;;;;;;;;5019171;28;20129;-79
2023/06/18 13:46:43;;;;;;;5.38;3.63;;;33.20;99.90;;;;;;5022716;28;20033;-78
2023/06/18 13:49:12;;;;;;;5.43;3.85;;;33.00;99.90;;;;;;5022829;28;20076;-78
2023/06/18 13:51:37;;;;;;;5.60;3.10;;;32.80;99.90;;;;;;5020252;28;20045;-75
2023/06/18 13:54:03;;;;;;;6.70;3.42;;;33.00;99.90;;;;;;5024700;28;20395;-76
2023/06/18 13:56:29;;;;;;;5.60;3.08;;;32.80;99.90;;;;;;5025705;28;20038;-75
2023/06/18 13:58:55;;;;;;;8.93;3.65;;;32.80;99.90;;;;;;5021555;28;20382;-75
2023/06/18 14:01:21;;;;;;;5.72;3.67;;;32.90;99.90;;;;;;5022111;28;20042;-77
2023/06/18 14:03:47;;;;;;;5.80;3.50;;;32.70;99.90;;;;;;5002248;28;20457;-77
2023/06/18 14:06:13;;;;;;;7.78;4.50;;;32.60;99.90;;;;;;5023989;28;20037;-77